ソウル/仁川 の空港の天気 - METARとTAF

仁川国際空港 ( RKSI / ICN ) - 韓国 仁川広域市 (ソウル特別市近郊)
飛行場実況気象(Metar)
観測時間06/24 18:30 KST (06/24 09:30 UTC)
風向・風速西 5m/s
視程10km以上
天気現象
なし
気温23℃
湿度57%
気圧1012hPa
METARRKSI 240930Z 26010KT CAVOK 23/14 Q1012 NOSIG
過去の天気等 Google飛行場航空写真 Wunderground天気予報

過去48時間のMETAR

飛行場予報(TAF)
発表時間: 6/24 14:00 KST (6/24 05:00 UTC)
予報対象時間: 24日15時 KST ~ 25日21時 KST
風向・風速西 4m/s
視程10km以上
なし
25日1時 KST ~ 25日2時 KST に徐々に
風向・風速南南西 3m/s
視程3500m
天気現象もや
全天の4割程度の雲 雲底高度 300m
25日4時 KST ~ 25日5時 KST に徐々に
視程1200m
25日6時 KST ~ 25日7時 KST に徐々に
風向・風速南西 3m/s
視程2800m
全天の4割程度の雲 雲底高度 910m
25日8時 KST ~ 25日9時 KST に徐々に
風向・風速西 4m/s
視程4200m
25日10時 KST ~ 25日11時 KST に徐々に
風向・風速北西 5m/s
視程6000m
天気現象運行に影響にある天気現象が終了
TAF RKSI 240500Z 2406/2512 27008KT CAVOK TN17/2421Z TX28/2506Z
BECMG 2416/2417 20006KT 3500 BR SCT010
BECMG 2419/2420 1200
BECMG 2421/2422 23006KT 2800 SCT030
BECMG 2423/2424 26008KT 4200
BECMG 2501/2502 32010KT 6000 NSW